Betagas — V2KA8 — position and weather

sailwx.info

Track history (hours):
 
Tides and Currents Weather Stations Pressure Air Temp Water Temp Dewpoint Dewpoint Depression Visibility Wind Speed Wind Dir Waves Ship Positions

Betagas

Last reported at 2017-Mar-25 23:24 UTC. Time now 2017-Mar-25 23:38 UTC.
Position N 53°39' W 000°13'.

Length 114.6 m; beam 15.7 m; draft 7.4 m.

Type: Tanker. MMSI: 304050636.

Date/timePositionNaut miles runAvg speedWind from/ knotsBaromVisibWave heightAir tempDewpointWater temp
2017-Mar-25 23:24N 53°39' W 000°13'0 0.0
2017-Mar-25 22:33N 53°39' W 000°13'0 0.0
2017-Mar-25 21:30N 53°39' W 000°13'0 0.0
2017-Mar-25 20:30N 53°39' W 000°13'0 0.0
2017-Mar-25 19:30N 53°39' W 000°13'0 0.0
2017-Mar-25 18:30N 53°39' W 000°13'0 0.0
2017-Mar-25 17:33N 53°39' W 000°13'0 0.0
2017-Mar-25 16:18N 53°39' W 000°13'0 0.7
2017-Mar-25 15:33N 53°39' W 000°13'6 5.6
2017-Mar-25 14:33N 53°37' W 000°04'1211.6
2017-Mar-25 13:33N 53°33' E 000°14'7 6.9
2017-Mar-25 12:31N 53°34' E 000°26'2 1.4
2017-Mar-25 11:23N 53°36' E 000°27'0 0.1
2017-Mar-25 10:29N 53°36' E 000°27'0 0.0
2017-Mar-25 09:29N 53°36' E 000°27'0 0.0
2017-Mar-25 08:29N 53°36' E 000°27'0 0.0
2017-Mar-25 07:29N 53°36' E 000°27'0 0.0
2017-Mar-25 06:29N 53°36' E 000°27'0 0.1
2017-Mar-25 05:29N 53°36' E 000°27'0 0.0
2017-Mar-25 00:29N 53°36' E 000°27'0 0.1
2017-Mar-24 23:11N 53°36' E 000°27'0 0.1
2017-Mar-24 22:17N 53°36' E 000°27'0 0.0
2017-Mar-24 21:29N 53°36' E 000°27'0 0.0
2017-Mar-24 20:29N 53°36' E 000°27'0 0.0
2017-Mar-24 19:29N 53°36' E 000°27'8 0.2
2017-Mar-23 09:15N 53°31' E 000°37'4 3.8
2017-Mar-23 08:16N 53°34' E 000°42'28314.3
2017-Mar-22 12:33N 53°57' E 008°38'1515.0
2017-Mar-22 11:33N 53°52' E 009°02'1414.1
2017-Mar-22 10:33N 53°46' E 009°24'7 6.6
2017-Mar-22 09:32N 53°41' E 009°30'0 0.1
2017-Mar-22 08:32N 53°40' E 009°30'0 0.0
2017-Mar-22 07:32N 53°40' E 009°30'1 0.5
2017-Mar-22 06:33N 53°40' E 009°30'1 0.8
2017-Mar-22 05:31N 53°39' E 009°31'0 0.0
2017-Mar-22 04:31N 53°39' E 009°31'0 0.0
2017-Mar-22 03:31N 53°39' E 009°31'0 0.0
2017-Mar-22 02:31N 53°39' E 009°31'0 0.0
2017-Mar-22 01:31N 53°39' E 009°31'0 0.0
2017-Mar-22 00:31N 53°39' E 009°31'0 0.0
2017-Mar-21 23:31N 53°39' E 009°31'0 0.0
2017-Mar-21 22:31N 53°39' E 009°31'0 0.0
2017-Mar-21 21:31N 53°39' E 009°31'0 0.0
2017-Mar-21 20:31N 53°39' E 009°31'0 0.0
2017-Mar-21 19:31N 53°39' E 009°31'0 0.0
2017-Mar-21 18:31N 53°39' E 009°31'0 0.0
2017-Mar-21 17:31N 53°39' E 009°31'0 0.0
2017-Mar-21 16:31N 53°39' E 009°31'0 0.0
2017-Mar-21 15:31N 53°39' E 009°31'0 0.0
2017-Mar-21 14:31N 53°39' E 009°31'0 0.0
2017-Mar-21 13:31N 53°39' E 009°31'0 0.0
2017-Mar-21 12:31N 53°39' E 009°31'0 0.0
2017-Mar-21 11:31N 53°39' E 009°31'0 0.0
2017-Mar-21 10:31N 53°39' E 009°31'2 2.4
2017-Mar-21 09:34N 53°41' E 009°30'1211.8
2017-Mar-21 08:34N 53°51' E 009°19'1111.0
2017-Mar-21 07:33N 53°51' E 009°00'1211.7
2017-Mar-21 06:33N 53°54' E 008°41'1312.6
2017-Mar-21 05:33N 53°59' E 008°21'1111.1
2017-Mar-21 04:33N 54°00' E 008°02'8013.3
2017-Mar-20 22:30N 54°06' E 005°46'17813.5
2017-Mar-20 09:20N 54°29' E 000°44'1114.6
2017-Mar-20 08:33N 54°31' E 000°25'1514.6
2017-Mar-20 07:33N 54°33' W 000°00'1514.7
2017-Mar-20 06:33N 54°36' W 000°25'2 0.1
2017-Mar-18 23:33N 54°37' W 000°23'1515.2
2017-Mar-18 22:33N 54°34' E 000°03'1514.7
2017-Mar-18 21:33N 54°31' E 000°28'27511.4
2017-Mar-17 21:28N 54°00' E 008°16'1314.6
2017-Mar-17 20:33N 53°57' E 008°38'1515.4
2017-Mar-17 19:33N 53°52' E 009°02'1211.8
2017-Mar-17 18:34N 53°49' E 009°22'1211.3
2017-Mar-17 17:32N 53°39' E 009°31'0 0.0
2017-Mar-17 16:29N 53°39' E 009°31'0 0.0
2017-Mar-17 15:29N 53°39' E 009°31'0 0.0
2017-Mar-17 14:29N 53°39' E 009°31'0 0.0
2017-Mar-17 13:32N 53°39' E 009°31'0 0.0
2017-Mar-17 12:32N 53°39' E 009°31'0 0.0
2017-Mar-17 11:26N 53°39' E 009°31'0 0.0
2017-Mar-17 10:29N 53°39' E 009°31'0 0.0
2017-Mar-17 09:29N 53°39' E 009°31'0 0.0
2017-Mar-17 08:32N 53°39' E 009°31'0 0.0
2017-Mar-17 07:32N 53°39' E 009°31'0 0.0
2017-Mar-17 06:29N 53°39' E 009°31'0 0.0
2017-Mar-17 05:29N 53°39' E 009°31'0 0.0
2017-Mar-17 04:32N 53°39' E 009°31'0 0.0
2017-Mar-17 03:29N 53°39' E 009°31'0 0.0
2017-Mar-17 02:32N 53°39' E 009°31'0 0.0
2017-Mar-17 01:29N 53°39' E 009°31'0 0.0
2017-Mar-17 00:29N 53°39' E 009°31'0 0.1
2017-Mar-16 23:33N 53°39' E 009°31'7 7.5
2017-Mar-16 22:33N 53°45' E 009°24'1110.6
2017-Mar-16 21:33N 53°53' E 009°12'10 9.6
2017-Mar-16 20:33N 53°51' E 008°56'9 8.9
2017-Mar-16 19:33N 53°54' E 008°42'10 9.8
2017-Mar-16 18:33N 53°59' E 008°27'1212.1
2017-Mar-16 17:33N 53°59' E 008°06'7013.8
2017-Mar-16 12:30N 53°43' E 006°12'1614.9
2017-Mar-16 11:28N 53°38' E 005°47'1515.2
2017-Mar-16 10:28N 53°34' E 005°23'1515.5
2017-Mar-16 09:31N 53°29' E 004°59'1515.4
2017-Mar-16 08:33N 53°19' E 004°39'1616.1
2017-Mar-16 07:32N 53°05' E 004°27'1515.7
2017-Mar-16 06:33N 52°52' E 004°14'1915.5
2017-Mar-16 05:21N 52°37' E 003°55'1315.8
2017-Mar-16 04:32N 52°28' E 003°40'1515.2
2017-Mar-16 03:33N 52°16' E 003°27'1615.4
2017-Mar-16 02:33N 52°00' E 003°24'1414.2
2017-Mar-16 01:33N 51°47' E 003°16'1211.7
2017-Mar-16 00:33N 51°36' E 003°23'1211.9
2017-Mar-15 23:33N 51°26' E 003°34'  
Track history (hours):
 
Tides and Currents Weather Stations Pressure Air Temp Water Temp Dewpoint Dewpoint Depression Visibility Wind Speed Wind Dir Waves Ship Positions

Betagas

Last reported at 2017-Mar-25 23:24 UTC. Time now 2017-Mar-25 23:38 UTC.
Position N 53°39' W 000°13'.

Length 114.6 m; beam 15.7 m; draft 7.4 m.

Type: Tanker. MMSI: 304050636.

Date/timePositionNaut miles runAvg speedWind from/ knotsBaromVisibWave heightAir tempDewpointWater temp
2017-Mar-25 23:24N 53°39' W 000°13'0 0.0
2017-Mar-25 22:33N 53°39' W 000°13'0 0.0
2017-Mar-25 21:30N 53°39' W 000°13'0 0.0
2017-Mar-25 20:30N 53°39' W 000°13'0 0.0
2017-Mar-25 19:30N 53°39' W 000°13'0 0.0
2017-Mar-25 18:30N 53°39' W 000°13'0 0.0
2017-Mar-25 17:33N 53°39' W 000°13'0 0.0
2017-Mar-25 16:18N 53°39' W 000°13'0 0.7
2017-Mar-25 15:33N 53°39' W 000°13'6 5.6
2017-Mar-25 14:33N 53°37' W 000°04'1211.6
2017-Mar-25 13:33N 53°33' E 000°14'7 6.9
2017-Mar-25 12:31N 53°34' E 000°26'2 1.4
2017-Mar-25 11:23N 53°36' E 000°27'0 0.1
2017-Mar-25 10:29N 53°36' E 000°27'0 0.0
2017-Mar-25 09:29N 53°36' E 000°27'0 0.0
2017-Mar-25 08:29N 53°36' E 000°27'0 0.0
2017-Mar-25 07:29N 53°36' E 000°27'0 0.0
2017-Mar-25 06:29N 53°36' E 000°27'0 0.1
2017-Mar-25 05:29N 53°36' E 000°27'0 0.0
2017-Mar-25 00:29N 53°36' E 000°27'0 0.1
2017-Mar-24 23:11N 53°36' E 000°27'0 0.1
2017-Mar-24 22:17N 53°36' E 000°27'0 0.0
2017-Mar-24 21:29N 53°36' E 000°27'0 0.0
2017-Mar-24 20:29N 53°36' E 000°27'0 0.0
2017-Mar-24 19:29N 53°36' E 000°27'8 0.2
2017-Mar-23 09:15N 53°31' E 000°37'4 3.8
2017-Mar-23 08:16N 53°34' E 000°42'28314.3
2017-Mar-22 12:33N 53°57' E 008°38'1515.0
2017-Mar-22 11:33N 53°52' E 009°02'1414.1
2017-Mar-22 10:33N 53°46' E 009°24'7 6.6
2017-Mar-22 09:32N 53°41' E 009°30'0 0.1
2017-Mar-22 08:32N 53°40' E 009°30'0 0.0
2017-Mar-22 07:32N 53°40' E 009°30'1 0.5
2017-Mar-22 06:33N 53°40' E 009°30'1 0.8
2017-Mar-22 05:31N 53°39' E 009°31'0 0.0
2017-Mar-22 04:31N 53°39' E 009°31'0 0.0
2017-Mar-22 03:31N 53°39' E 009°31'0 0.0
2017-Mar-22 02:31N 53°39' E 009°31'0 0.0
2017-Mar-22 01:31N 53°39' E 009°31'0 0.0
2017-Mar-22 00:31N 53°39' E 009°31'0 0.0
2017-Mar-21 23:31N 53°39' E 009°31'0 0.0
2017-Mar-21 22:31N 53°39' E 009°31'0 0.0
2017-Mar-21 21:31N 53°39' E 009°31'0 0.0
2017-Mar-21 20:31N 53°39' E 009°31'0 0.0
2017-Mar-21 19:31N 53°39' E 009°31'0 0.0
2017-Mar-21 18:31N 53°39' E 009°31'0 0.0
2017-Mar-21 17:31N 53°39' E 009°31'0 0.0
2017-Mar-21 16:31N 53°39' E 009°31'0 0.0
2017-Mar-21 15:31N 53°39' E 009°31'0 0.0
2017-Mar-21 14:31N 53°39' E 009°31'0 0.0
2017-Mar-21 13:31N 53°39' E 009°31'0 0.0
2017-Mar-21 12:31N 53°39' E 009°31'0 0.0
2017-Mar-21 11:31N 53°39' E 009°31'0 0.0
2017-Mar-21 10:31N 53°39' E 009°31'2 2.4
2017-Mar-21 09:34N 53°41' E 009°30'1211.8
2017-Mar-21 08:34N 53°51' E 009°19'1111.0
2017-Mar-21 07:33N 53°51' E 009°00'1211.7
2017-Mar-21 06:33N 53°54' E 008°41'1312.6
2017-Mar-21 05:33N 53°59' E 008°21'1111.1
2017-Mar-21 04:33N 54°00' E 008°02'8013.3
2017-Mar-20 22:30N 54°06' E 005°46'17813.5
2017-Mar-20 09:20N 54°29' E 000°44'1114.6
2017-Mar-20 08:33N 54°31' E 000°25'1514.6
2017-Mar-20 07:33N 54°33' W 000°00'1514.7
2017-Mar-20 06:33N 54°36' W 000°25'2 0.1
2017-Mar-18 23:33N 54°37' W 000°23'1515.2
2017-Mar-18 22:33N 54°34' E 000°03'1514.7
2017-Mar-18 21:33N 54°31' E 000°28'27511.4
2017-Mar-17 21:28N 54°00' E 008°16'1314.6
2017-Mar-17 20:33N 53°57' E 008°38'1515.4
2017-Mar-17 19:33N 53°52' E 009°02'1211.8
2017-Mar-17 18:34N 53°49' E 009°22'1211.3
2017-Mar-17 17:32N 53°39' E 009°31'0 0.0
2017-Mar-17 16:29N 53°39' E 009°31'0 0.0
2017-Mar-17 15:29N 53°39' E 009°31'0 0.0
2017-Mar-17 14:29N 53°39' E 009°31'0 0.0
2017-Mar-17 13:32N 53°39' E 009°31'0 0.0
2017-Mar-17 12:32N 53°39' E 009°31'0 0.0
2017-Mar-17 11:26N 53°39' E 009°31'0 0.0
2017-Mar-17 10:29N 53°39' E 009°31'0 0.0
2017-Mar-17 09:29N 53°39' E 009°31'0 0.0
2017-Mar-17 08:32N 53°39' E 009°31'0 0.0
2017-Mar-17 07:32N 53°39' E 009°31'0 0.0
2017-Mar-17 06:29N 53°39' E 009°31'0 0.0
2017-Mar-17 05:29N 53°39' E 009°31'0 0.0
2017-Mar-17 04:32N 53°39' E 009°31'0 0.0
2017-Mar-17 03:29N 53°39' E 009°31'0 0.0
2017-Mar-17 02:32N 53°39' E 009°31'0 0.0
2017-Mar-17 01:29N 53°39' E 009°31'0 0.0
2017-Mar-17 00:29N 53°39' E 009°31'0 0.1
2017-Mar-16 23:33N 53°39' E 009°31'7 7.5
2017-Mar-16 22:33N 53°45' E 009°24'1110.6
2017-Mar-16 21:33N 53°53' E 009°12'10 9.6
2017-Mar-16 20:33N 53°51' E 008°56'9 8.9
2017-Mar-16 19:33N 53°54' E 008°42'10 9.8
2017-Mar-16 18:33N 53°59' E 008°27'1212.1
2017-Mar-16 17:33N 53°59' E 008°06'7013.8
2017-Mar-16 12:30N 53°43' E 006°12'1614.9
2017-Mar-16 11:28N 53°38' E 005°47'1515.2
2017-Mar-16 10:28N 53°34' E 005°23'1515.5
2017-Mar-16 09:31N 53°29' E 004°59'1515.4
2017-Mar-16 08:33N 53°19' E 004°39'1616.1
2017-Mar-16 07:32N 53°05' E 004°27'1515.7
2017-Mar-16 06:33N 52°52' E 004°14'1915.5
2017-Mar-16 05:21N 52°37' E 003°55'1315.8
2017-Mar-16 04:32N 52°28' E 003°40'1515.2
2017-Mar-16 03:33N 52°16' E 003°27'1615.4
2017-Mar-16 02:33N 52°00' E 003°24'1414.2
2017-Mar-16 01:33N 51°47' E 003°16'1211.7
2017-Mar-16 00:33N 51°36' E 003°23'1211.9
2017-Mar-15 23:33N 51°26' E 003°34'  

Dump ship's entire track history